Bear Creek, Wisconsin
Current Conditions -  °F | °C
As of 6:55 AM on Saturday 22 Nov 2014 (Local Time) from KCLI Reporting Station
Overcast Overcast  
Wind Chill: 25°   Ceiling: 1100
Heat Index: 32°   Visibility: 7mi
Dew Point: 30°   Wind: 8mph
Humidity: 93%   Direction: 220°SW
Pressure: 29.87"   Gusts: NA
Location:  44.53°N, 88.73°W
Report Text: KCLI 221255Z AUTO 22007KT 7SM OVC011 00/M01 A2987 RMK AO2
Loading
Personal Weather Stations






























Interactive Weather Map New forecast layout! Learn more

10-Day Weather Forecast

Advertisements
Track Severe Weather on mobile